createdAt,value
2019-01-12T00:01:14.340Z,3.50
2019-01-12T00:03:46.618Z,3.50
2019-01-12T00:06:18.600Z,3.52
2019-01-12T00:08:52.104Z,3.40
2019-01-12T00:11:23.962Z,3.24
2019-01-12T00:13:55.816Z,3.13
2019-01-12T00:16:28.080Z,3.12
2019-01-12T00:18:59.894Z,3.12
2019-01-12T00:21:31.781Z,3.02
2019-01-12T00:24:03.697Z,3.04
2019-01-12T00:26:35.540Z,3.14
2019-01-12T00:29:07.424Z,3.22
2019-01-12T00:31:39.316Z,3.22
2019-01-12T00:34:11.322Z,3.22
2019-01-12T00:36:43.306Z,3.21
2019-01-12T00:39:15.149Z,2.96
2019-01-12T00:41:47.136Z,3.09
2019-01-12T00:44:19.021Z,3.17
2019-01-12T00:46:50.840Z,3.02
2019-01-12T00:49:22.735Z,2.96
2019-01-12T00:51:54.584Z,2.78
2019-01-12T00:54:27.209Z,2.68
2019-01-12T00:56:59.507Z,2.68
2019-01-12T00:59:31.390Z,2.65
2019-01-12T01:02:03.303Z,2.56
2019-01-12T01:04:35.187Z,2.63
2019-01-12T01:07:07.067Z,2.83
2019-01-12T01:09:39.262Z,2.93
2019-01-12T01:12:11.257Z,2.83
2019-01-12T01:14:43.139Z,2.69
2019-01-12T01:17:14.980Z,2.72
2019-01-12T01:19:46.914Z,2.69
2019-01-12T01:22:18.807Z,2.59
2019-01-12T01:24:52.901Z,2.60
2019-01-12T01:27:24.761Z,2.68
2019-01-12T01:29:56.654Z,2.75
2019-01-12T01:32:28.553Z,2.59
2019-01-12T01:35:00.474Z,2.50
2019-01-12T01:37:32.367Z,2.46
2019-01-12T01:40:05.375Z,2.41
2019-01-12T01:42:37.330Z,2.27
2019-01-12T01:45:11.932Z,2.28
2019-01-12T01:47:43.812Z,2.25
2019-01-12T01:50:16.191Z,2.26
2019-01-12T01:52:48.492Z,2.38
2019-01-12T01:55:20.509Z,2.58
2019-01-12T01:57:52.385Z,2.61
2019-01-12T02:00:24.227Z,2.54
2019-01-12T02:02:56.141Z,2.51
2019-01-12T02:05:29.145Z,2.63
2019-01-12T02:08:00.982Z,2.56
2019-01-12T02:10:32.876Z,2.61
2019-01-12T02:13:04.815Z,2.60
2019-01-12T02:15:38.579Z,2.70
2019-01-12T02:18:10.430Z,2.76
2019-01-12T02:20:42.451Z,2.70
2019-01-12T02:23:14.343Z,2.54
2019-01-12T02:25:46.200Z,2.52
2019-01-12T02:28:19.681Z,2.58
2019-01-12T02:30:51.563Z,2.57
2019-01-12T02:33:23.421Z,2.52
2019-01-12T02:35:55.251Z,2.50
2019-01-12T02:38:28.652Z,2.45
2019-01-12T02:41:00.488Z,2.38
2019-01-12T02:43:32.379Z,2.37
2019-01-12T02:46:06.175Z,2.42
2019-01-12T02:48:38.019Z,2.49
2019-01-12T02:51:09.952Z,2.42
2019-01-12T02:53:44.700Z,2.41
2019-01-12T02:56:16.580Z,2.53
2019-01-12T02:58:48.469Z,2.55
2019-01-12T03:01:20.392Z,2.47
2019-01-12T03:03:55.750Z,2.44
2019-01-12T03:06:27.596Z,2.25
2019-01-12T03:09:01.039Z,2.18
2019-01-12T03:11:34.744Z,2.24
2019-01-12T03:14:06.719Z,2.07
2019-01-12T03:16:38.995Z,2.07
2019-01-12T03:19:11.307Z,2.07
2019-01-12T03:21:44.556Z,2.18
2019-01-12T03:24:19.119Z,2.04
2019-01-12T03:26:51.090Z,1.87
2019-01-12T03:29:24.741Z,1.80
2019-01-12T03:31:56.662Z,1.79
2019-01-12T03:34:29.495Z,1.65
2019-01-12T03:37:01.429Z,1.60
2019-01-12T03:39:33.277Z,1.71
2019-01-12T03:42:05.600Z,1.79
2019-01-12T03:44:38.612Z,1.78
2019-01-12T03:47:10.486Z,1.83
2019-01-12T03:49:42.365Z,1.92
2019-01-12T03:52:14.190Z,1.84
2019-01-12T03:54:46.498Z,1.76
2019-01-12T03:57:18.317Z,1.70
2019-01-12T03:59:50.297Z,1.61
2019-01-12T04:02:22.134Z,1.59
2019-01-12T04:04:54.012Z,1.24
2019-01-12T04:07:25.840Z,1.12
2019-01-12T04:09:58.108Z,1.09
2019-01-12T04:12:31.899Z,1.13
2019-01-12T04:15:06.106Z,1.18
2019-01-12T04:17:39.583Z,1.18
2019-01-12T04:20:13.784Z,1.32
2019-01-12T04:22:45.682Z,1.26
2019-01-12T04:25:17.632Z,1.14
2019-01-12T04:27:49.495Z,1.14
2019-01-12T04:30:21.381Z,1.03
2019-01-12T04:32:53.376Z,1.01
2019-01-12T04:35:25.276Z,0.99
2019-01-12T04:38:00.811Z,0.98
2019-01-12T04:40:33.346Z,1.02
2019-01-12T04:43:05.246Z,1.02
2019-01-12T04:45:37.112Z,1.01
2019-01-12T04:48:08.982Z,0.88
2019-01-12T04:50:41.261Z,0.93
2019-01-12T04:53:13.106Z,0.98
2019-01-12T04:55:44.996Z,1.01
2019-01-12T04:58:16.847Z,1.09
2019-01-12T05:00:49.127Z,1.10
2019-01-12T05:03:21.170Z,1.04
2019-01-12T05:05:53.028Z,1.03
2019-01-12T05:08:27.900Z,1.01
2019-01-12T05:11:02.118Z,1.08
2019-01-12T05:13:33.985Z,0.95
2019-01-12T05:16:06.002Z,0.87
2019-01-12T05:18:37.824Z,0.93
2019-01-12T05:21:09.709Z,0.72
2019-01-12T05:23:43.165Z,0.72
2019-01-12T05:26:15.039Z,0.44
2019-01-12T05:28:47.000Z,0.33
2019-01-12T05:31:21.701Z,0.25
2019-01-12T05:33:53.973Z,0.31
2019-01-12T05:36:25.807Z,0.30
2019-01-12T05:38:57.691Z,0.29
2019-01-12T05:41:29.559Z,0.41
2019-01-12T05:44:01.414Z,0.33
2019-01-12T05:46:33.245Z,0.33
2019-01-12T05:49:05.526Z,0.37
2019-01-12T05:51:37.355Z,0.33
2019-01-12T05:54:09.170Z,0.31
2019-01-12T05:56:41.097Z,0.33
2019-01-12T05:59:12.910Z,0.25
2019-01-12T06:01:44.795Z,0.21
2019-01-12T06:04:17.969Z,0.20
2019-01-12T06:06:49.878Z,0.20
2019-01-12T06:09:21.756Z,0.12
2019-01-12T06:11:55.566Z,0.11
2019-01-12T06:14:27.405Z,0.11
2019-01-12T06:16:59.274Z,0.18
2019-01-12T06:19:31.114Z,0.04
2019-01-12T06:22:02.993Z,0.18
2019-01-12T06:24:34.853Z,0.22
2019-01-12T06:27:06.749Z,0.31
2019-01-12T06:29:38.797Z,0.35
2019-01-12T06:32:10.695Z,0.29
2019-01-12T06:34:42.533Z,0.29
2019-01-12T06:37:14.831Z,0.32
2019-01-12T06:39:46.656Z,0.12
2019-01-12T06:42:18.513Z,0.17
2019-01-12T06:44:50.351Z,0.17
2019-01-12T06:47:22.216Z,0.17
2019-01-12T06:49:57.298Z,0.22
2019-01-12T06:52:29.239Z,0.22
2019-01-12T06:55:01.482Z,0.16
2019-01-12T06:57:33.365Z,0.17
2019-01-12T07:00:08.222Z,0.29
2019-01-12T07:02:40.147Z,0.33
2019-01-12T07:05:12.604Z,0.34
2019-01-12T07:07:44.686Z,0.32
2019-01-12T07:10:19.146Z,0.32
2019-01-12T07:12:51.024Z,0.41
2019-01-12T07:15:23.232Z,0.41
2019-01-12T07:17:55.081Z,0.39
2019-01-12T07:20:26.931Z,0.39
2019-01-12T07:22:58.776Z,0.34
2019-01-12T07:25:33.868Z,0.29
2019-01-12T07:28:05.916Z,0.30
2019-01-12T07:30:40.221Z,0.16
2019-01-12T07:33:13.726Z,0.20
2019-01-12T07:35:45.542Z,0.07
2019-01-12T07:38:17.431Z,0.13
2019-01-12T07:40:49.267Z,0.05
2019-01-12T07:43:21.159Z,-0.16
2019-01-12T07:45:53.007Z,-0.26
2019-01-12T07:48:24.888Z,-0.26
2019-01-12T07:50:56.909Z,-0.34
2019-01-12T07:53:29.103Z,-0.16
2019-01-12T07:56:01.030Z,-0.23
2019-01-12T07:58:32.865Z,-0.14
2019-01-12T08:01:04.994Z,-0.20
2019-01-12T08:03:36.863Z,-0.07
2019-01-12T08:06:08.730Z,-0.01
2019-01-12T08:08:40.590Z,0.04
2019-01-12T08:11:12.472Z,0.02
2019-01-12T08:13:44.327Z,0.14
2019-01-12T08:16:16.215Z,0.03
2019-01-12T08:18:51.302Z,0.03
2019-01-12T08:21:23.287Z,0.13
2019-01-12T08:23:56.969Z,0.13
2019-01-12T08:26:31.331Z,0.12
2019-01-12T08:29:02.525Z,0.23
2019-01-12T08:31:34.522Z,0.33
2019-01-12T08:34:09.068Z,0.43
2019-01-12T08:36:40.937Z,0.53
2019-01-12T08:39:13.275Z,0.72
2019-01-12T08:41:46.693Z,0.64
2019-01-12T08:44:18.910Z,0.77
2019-01-12T08:46:50.871Z,0.90
2019-01-12T08:49:22.941Z,1.03
2019-01-12T08:51:54.805Z,1.10
2019-01-12T08:54:26.711Z,1.11
2019-01-12T08:56:58.547Z,1.24
2019-01-12T08:59:32.236Z,1.44
2019-01-12T09:02:04.247Z,1.62
2019-01-12T09:04:43.448Z,1.59
2019-01-12T09:07:09.809Z,1.73
2019-01-12T09:09:41.685Z,1.80
2019-01-12T09:12:15.384Z,1.90
2019-01-12T09:14:47.282Z,2.06
2019-01-12T09:17:20.412Z,2.25
2019-01-12T09:19:52.367Z,2.46
2019-01-12T09:22:24.236Z,2.65
2019-01-12T09:24:56.252Z,2.82
2019-01-12T09:27:28.069Z,3.32
2019-01-12T09:30:00.438Z,4.52
2019-01-12T09:32:32.785Z,6.48
2019-01-12T09:35:05.321Z,8.34
2019-01-12T09:37:38.913Z,10.26
2019-01-12T09:40:18.031Z,10.95
2019-01-12T09:42:52.183Z,12.96
2019-01-12T09:45:24.195Z,13.03
2019-01-12T09:47:56.184Z,13.95
2019-01-12T09:50:28.034Z,13.76
2019-01-12T09:53:07.046Z,14.58
2019-01-12T09:55:38.897Z,14.31
2019-01-12T09:58:12.767Z,15.40
2019-01-12T10:00:44.735Z,17.54
2019-01-12T10:03:16.569Z,19.04
2019-01-12T10:05:48.456Z,17.86
2019-01-12T10:08:20.395Z,20.52
2019-01-12T10:10:52.263Z,22.57
2019-01-12T10:13:24.171Z,23.44
2019-01-12T10:15:56.111Z,23.40
2019-01-12T10:18:28.042Z,24.40
2019-01-12T10:21:00.035Z,24.08
2019-01-12T10:23:31.949Z,21.11
2019-01-12T10:26:03.831Z,23.36
2019-01-12T10:28:35.764Z,24.43
2019-01-12T10:31:08.112Z,25.16
2019-01-12T10:33:40.077Z,24.02
2019-01-12T10:36:12.014Z,24.33
2019-01-12T10:38:45.077Z,26.62
2019-01-12T10:41:17.100Z,27.19
2019-01-12T10:43:49.083Z,28.35
2019-01-12T10:46:21.069Z,24.20
2019-01-12T10:48:52.918Z,25.00
2019-01-12T10:51:24.790Z,25.71
2019-01-12T10:53:56.691Z,23.94
2019-01-12T10:56:28.706Z,23.44
2019-01-12T10:59:00.870Z,23.88
2019-01-12T11:01:32.754Z,23.92
2019-01-12T11:04:05.459Z,19.52
2019-01-12T11:06:37.299Z,18.84
2019-01-12T11:09:09.905Z,18.26
2019-01-12T11:11:41.717Z,17.75
2019-01-12T11:14:13.632Z,17.66
2019-01-12T11:16:45.494Z,17.47
2019-01-12T11:19:17.379Z,19.21
2019-01-12T11:21:49.299Z,19.99
2019-01-12T11:24:21.567Z,19.07
2019-01-12T11:26:53.421Z,18.83
2019-01-12T11:29:26.074Z,18.63
2019-01-12T11:31:57.991Z,19.07
2019-01-12T11:34:29.821Z,19.18
2019-01-12T11:37:01.703Z,20.56
2019-01-12T11:39:35.420Z,19.98
2019-01-12T11:42:07.414Z,18.38
2019-01-12T11:44:39.280Z,18.91
2019-01-12T11:47:11.197Z,19.27
2019-01-12T11:49:43.000Z,18.92
2019-01-12T11:52:18.722Z,18.49
2019-01-12T11:54:50.585Z,18.13
2019-01-12T11:57:22.474Z,18.07
2019-01-12T11:59:56.411Z,17.61
2019-01-12T12:02:28.290Z,17.92
2019-01-12T12:05:00.238Z,18.07
2019-01-12T12:07:33.111Z,17.82
2019-01-12T12:10:05.959Z,18.01
2019-01-12T12:12:37.832Z,16.59
2019-01-12T12:15:10.948Z,17.17
2019-01-12T12:17:44.708Z,17.85
2019-01-12T12:20:21.561Z,18.47
2019-01-12T12:22:53.657Z,17.99
2019-01-12T12:25:25.786Z,18.37
2019-01-12T12:27:57.741Z,19.34
2019-01-12T12:30:32.295Z,19.48
2019-01-12T12:33:04.539Z,18.71
2019-01-12T12:35:37.889Z,19.79
2019-01-12T12:38:10.053Z,18.86
2019-01-12T12:40:42.034Z,19.20
2019-01-12T12:43:13.903Z,19.89
2019-01-12T12:45:46.114Z,20.72
2019-01-12T12:48:18.075Z,22.18
2019-01-12T12:50:49.956Z,20.36
2019-01-12T12:53:21.816Z,20.09
2019-01-12T12:55:54.757Z,19.13
2019-01-12T12:58:26.627Z,18.38
2019-01-12T13:00:58.529Z,18.57
2019-01-12T13:03:32.055Z,18.63
2019-01-12T13:06:03.980Z,18.68
2019-01-12T13:08:35.852Z,18.59
2019-01-12T13:11:07.871Z,18.52
2019-01-12T13:13:40.237Z,17.91
2019-01-12T13:16:12.099Z,18.15
2019-01-12T13:18:44.141Z,19.02
2019-01-12T13:21:16.021Z,17.47
2019-01-12T13:23:50.143Z,17.40
2019-01-12T13:26:23.964Z,17.03
2019-01-12T13:28:59.081Z,15.93
2019-01-12T13:31:31.114Z,15.09
2019-01-12T13:34:03.035Z,14.25
2019-01-12T13:36:34.994Z,13.98
2019-01-12T13:39:08.595Z,13.79
2019-01-12T13:41:40.860Z,13.96
2019-01-12T13:44:12.786Z,13.97
2019-01-12T13:46:44.697Z,13.69
2019-01-12T13:49:18.337Z,13.76
2019-01-12T13:51:50.440Z,13.73
2019-01-12T13:54:22.358Z,13.76
2019-01-12T13:56:54.245Z,13.96
2019-01-12T13:59:26.106Z,13.78
2019-01-12T14:01:58.036Z,13.98
2019-01-12T14:04:29.919Z,13.97
2019-01-12T14:07:01.814Z,14.03
2019-01-12T14:09:33.746Z,13.93
2019-01-12T14:12:05.655Z,13.98
2019-01-12T14:14:37.485Z,14.15
2019-01-12T14:17:09.743Z,14.03
2019-01-12T14:19:41.605Z,14.12
2019-01-12T14:22:14.963Z,13.87
2019-01-12T14:24:49.480Z,13.93
2019-01-12T14:27:22.446Z,13.73
2019-01-12T14:29:54.485Z,13.77
2019-01-12T14:32:26.502Z,13.67
2019-01-12T14:34:58.497Z,13.71
2019-01-12T14:37:32.814Z,13.67
2019-01-12T14:40:05.300Z,13.59
2019-01-12T14:42:37.212Z,13.43
2019-01-12T14:45:15.667Z,13.57
2019-01-12T14:47:47.615Z,13.55
2019-01-12T14:50:19.578Z,13.56
2019-01-12T14:52:51.526Z,13.62
2019-01-12T14:55:23.413Z,13.64
2019-01-12T14:58:01.653Z,13.67
2019-01-12T15:00:29.847Z,13.67
2019-01-12T15:03:02.151Z,13.62
2019-01-12T15:05:36.109Z,13.70
2019-01-12T15:08:09.996Z,13.71
2019-01-12T15:10:41.868Z,13.52
2019-01-12T15:13:13.807Z,13.36
2019-01-12T15:15:45.803Z,13.40
2019-01-12T15:18:18.024Z,13.33
2019-01-12T15:20:50.217Z,13.24
2019-01-12T15:23:23.605Z,13.24
2019-01-12T15:25:55.594Z,13.29
2019-01-12T15:28:27.543Z,13.19
2019-01-12T15:31:01.007Z,13.23
2019-01-12T15:33:32.991Z,13.28
2019-01-12T15:36:04.950Z,13.25
2019-01-12T15:38:36.836Z,13.19
2019-01-12T15:41:08.696Z,13.36
2019-01-12T15:43:40.566Z,13.25
2019-01-12T15:46:12.429Z,13.30
2019-01-12T15:48:44.386Z,13.20
2019-01-12T15:51:16.251Z,13.30
2019-01-12T15:53:51.040Z,13.29
2019-01-12T15:56:22.954Z,13.08
2019-01-12T15:58:54.816Z,13.08
2019-01-12T16:01:28.594Z,13.25
2019-01-12T16:04:01.076Z,13.05
2019-01-12T16:06:32.959Z,13.16
2019-01-12T16:09:07.891Z,13.11
2019-01-12T16:11:39.846Z,13.18
2019-01-12T16:14:12.397Z,12.99
2019-01-12T16:16:44.675Z,13.17
2019-01-12T16:19:16.577Z,13.14
2019-01-12T16:21:48.453Z,13.15
2019-01-12T16:24:20.408Z,12.92
2019-01-12T16:26:53.070Z,13.06
2019-01-12T16:29:27.928Z,13.06
2019-01-12T16:32:01.292Z,12.85
2019-01-12T16:34:35.771Z,12.78
2019-01-12T16:37:08.483Z,12.68
2019-01-12T16:39:40.549Z,12.56
2019-01-12T16:42:14.491Z,12.56
2019-01-12T16:44:46.385Z,12.42
2019-01-12T16:47:18.211Z,12.46
2019-01-12T16:49:53.449Z,12.29
2019-01-12T16:52:25.336Z,12.17
2019-01-12T16:54:57.229Z,12.10
2019-01-12T16:57:29.172Z,12.19
2019-01-12T17:00:06.514Z,12.17
2019-01-12T17:02:38.388Z,11.90
2019-01-12T17:05:13.488Z,11.76
2019-01-12T17:07:45.540Z,11.62
2019-01-12T17:10:19.528Z,11.56
2019-01-12T17:12:51.485Z,11.45
2019-01-12T17:15:24.328Z,11.36
2019-01-12T17:17:56.525Z,11.31
2019-01-12T17:20:30.630Z,11.22
2019-01-12T17:23:04.081Z,11.05
2019-01-12T17:25:36.458Z,11.01
2019-01-12T17:28:08.379Z,10.94
2019-01-12T17:30:40.304Z,10.84
2019-01-12T17:33:13.194Z,10.78
2019-01-12T17:35:45.105Z,10.60
2019-01-12T17:38:18.732Z,10.44
2019-01-12T17:40:50.690Z,10.30
2019-01-12T17:43:22.616Z,10.13
2019-01-12T17:45:58.129Z,9.96
2019-01-12T17:48:29.946Z,9.85
2019-01-12T17:51:01.979Z,9.78
2019-01-12T17:53:33.859Z,9.74
2019-01-12T17:56:06.101Z,9.65
2019-01-12T17:58:44.259Z,9.54
2019-01-12T18:01:11.732Z,9.47
2019-01-12T18:03:43.631Z,9.32
2019-01-12T18:06:15.532Z,9.20
2019-01-12T18:08:47.823Z,9.10
2019-01-12T18:11:21.509Z,9.03
2019-01-12T18:13:53.360Z,8.88
2019-01-12T18:16:25.453Z,8.63
2019-01-12T18:18:57.490Z,8.47
2019-01-12T18:21:29.371Z,8.36
2019-01-12T18:24:01.236Z,8.38
2019-01-12T18:26:33.648Z,8.29
2019-01-12T18:29:06.057Z,8.11
2019-01-12T18:31:38.416Z,7.95
2019-01-12T18:34:10.289Z,7.87
2019-01-12T18:36:42.153Z,7.76
2019-01-12T18:39:14.542Z,7.64
2019-01-12T18:41:46.487Z,7.38
2019-01-12T18:44:18.469Z,7.34
2019-01-12T18:46:50.475Z,7.30
2019-01-12T18:49:22.363Z,7.25
2019-01-12T18:51:55.890Z,7.19
2019-01-12T18:54:29.385Z,7.02
2019-01-12T18:57:01.354Z,6.91
2019-01-12T18:59:35.576Z,6.76
2019-01-12T19:02:07.532Z,6.75
2019-01-12T19:04:39.544Z,6.67
2019-01-12T19:07:11.394Z,6.60
2019-01-12T19:09:43.362Z,6.56
2019-01-12T19:12:15.275Z,6.58
2019-01-12T19:14:47.213Z,6.61
2019-01-12T19:17:20.881Z,6.51
2019-01-12T19:19:52.781Z,6.52
2019-01-12T19:22:24.732Z,6.41
2019-01-12T19:24:56.941Z,6.26
2019-01-12T19:27:28.816Z,6.20
2019-01-12T19:30:01.185Z,6.12
2019-01-12T19:32:33.163Z,6.08
2019-01-12T19:35:05.388Z,5.99
2019-01-12T19:37:37.258Z,6.01
2019-01-12T19:40:12.835Z,5.97
2019-01-12T19:42:45.067Z,5.85
2019-01-12T19:45:17.247Z,5.65
2019-01-12T19:47:49.323Z,5.58
2019-01-12T19:50:23.318Z,5.53
2019-01-12T19:52:55.751Z,5.50
2019-01-12T19:55:27.653Z,5.39
2019-01-12T19:57:59.608Z,5.37
2019-01-12T20:00:33.830Z,5.42
2019-01-12T20:03:05.705Z,5.48
2019-01-12T20:05:37.652Z,5.47
2019-01-12T20:08:09.638Z,5.36
2019-01-12T20:10:41.530Z,5.25
2019-01-12T20:13:13.450Z,5.14
2019-01-12T20:15:45.310Z,5.20
2019-01-12T20:18:20.192Z,5.05
2019-01-12T20:20:53.037Z,4.96
2019-01-12T20:23:26.420Z,4.92
2019-01-12T20:25:58.336Z,4.79
2019-01-12T20:28:30.215Z,4.68
2019-01-12T20:31:37.854Z,4.64
2019-01-12T20:34:49.974Z,4.63
2019-01-12T20:38:01.022Z,4.68
2019-01-12T20:40:58.406Z,4.56
2019-01-12T20:44:05.519Z,4.53
2019-01-12T20:47:19.317Z,4.51
2019-01-12T20:50:13.601Z,4.47
2019-01-12T20:53:23.709Z,4.46
2019-01-12T20:56:27.046Z,4.38
2019-01-12T20:59:11.154Z,4.33
2019-01-12T21:02:25.030Z,4.37
2019-01-12T21:05:22.521Z,4.26
2019-01-12T21:08:34.748Z,4.07
2019-01-12T21:11:43.784Z,3.98
2019-01-12T21:14:39.565Z,3.70
2019-01-12T21:17:13.636Z,4.04
2019-01-12T21:19:48.287Z,3.96
2019-01-12T21:22:20.642Z,4.06
2019-01-12T21:24:54.116Z,4.08
2019-01-12T21:27:26.021Z,4.15
2019-01-12T21:29:57.934Z,4.16
2019-01-12T21:32:29.797Z,4.21
2019-01-12T21:35:01.870Z,4.13
2019-01-12T21:37:34.074Z,4.03
2019-01-12T21:40:07.571Z,3.99
2019-01-12T21:42:39.556Z,3.91
2019-01-12T21:45:13.912Z,3.94
2019-01-12T21:47:45.837Z,3.80
2019-01-12T21:50:18.120Z,3.72
2019-01-12T21:52:50.666Z,3.78
2019-01-12T21:55:22.875Z,3.64
2019-01-12T21:57:54.801Z,3.57
2019-01-12T22:00:26.712Z,3.51
2019-01-12T22:02:58.721Z,3.44
2019-01-12T22:05:30.637Z,3.40
2019-01-12T22:08:04.305Z,3.38
2019-01-12T22:10:36.705Z,3.30
2019-01-12T22:13:08.573Z,3.25
2019-01-12T22:15:40.574Z,3.19
2019-01-12T22:18:12.459Z,3.21
2019-01-12T22:20:44.616Z,3.23
2019-01-12T22:23:16.536Z,3.24
2019-01-12T22:25:48.411Z,3.16
2019-01-12T22:28:20.902Z,3.20
2019-01-12T22:30:52.795Z,3.21
2019-01-12T22:33:27.112Z,3.16
2019-01-12T22:36:01.320Z,3.12
2019-01-12T22:38:33.295Z,3.07
2019-01-12T22:41:07.900Z,3.07
2019-01-12T22:43:39.761Z,3.01
2019-01-12T22:46:14.340Z,2.94
2019-01-12T22:48:46.161Z,2.92
2019-01-12T22:51:18.751Z,2.95
2019-01-12T22:53:52.069Z,2.99
2019-01-12T22:56:23.975Z,2.93
2019-01-12T22:58:55.906Z,2.91
2019-01-12T23:01:43.423Z,2.84
2019-01-12T23:04:22.247Z,2.89
2019-01-12T23:06:54.638Z,2.56
2019-01-12T23:09:45.154Z,2.91
2019-01-12T23:12:35.748Z,2.91
2019-01-12T23:15:25.918Z,2.73
2019-01-12T23:18:16.423Z,2.96
2019-01-12T23:21:06.988Z,2.95
2019-01-12T23:23:58.011Z,2.89
2019-01-12T23:26:48.781Z,2.88
2019-01-12T23:29:39.605Z,2.82
2019-01-12T23:32:30.125Z,2.86
2019-01-12T23:35:20.433Z,2.71
2019-01-12T23:38:10.745Z,2.47
2019-01-12T23:41:01.327Z,2.51
2019-01-12T23:43:52.057Z,2.60
2019-01-12T23:46:44.797Z,2.63
2019-01-12T23:49:34.967Z,2.67
2019-01-12T23:52:24.876Z,2.71
2019-01-12T23:55:15.515Z,2.63
2019-01-12T23:58:05.969Z,2.59
